createdAt,value
2017-03-19T00:00:33.436Z,8.88
2017-03-19T00:01:33.566Z,8.85
2017-03-19T00:02:33.456Z,8.92
2017-03-19T00:03:33.476Z,8.94
2017-03-19T00:04:33.613Z,8.84
2017-03-19T00:05:33.629Z,8.94
2017-03-19T00:06:33.529Z,8.76
2017-03-19T00:07:33.225Z,8.82
2017-03-19T00:08:33.668Z,8.76
2017-03-19T00:09:33.556Z,8.88
2017-03-19T00:10:33.703Z,8.76
2017-03-19T00:11:33.586Z,8.81
2017-03-19T00:12:33.605Z,8.82
2017-03-19T00:13:33.621Z,8.79
2017-03-19T00:14:33.637Z,8.74
2017-03-19T00:15:33.463Z,8.82
2017-03-19T00:16:33.676Z,8.78
2017-03-19T00:17:33.821Z,8.78
2017-03-19T00:18:33.703Z,8.84
2017-03-19T00:19:33.828Z,8.85
2017-03-19T00:20:33.406Z,8.78
2017-03-19T00:21:33.847Z,8.84
2017-03-19T00:22:33.993Z,8.81
2017-03-19T00:23:33.864Z,8.78
2017-03-19T00:24:33.888Z,8.82
2017-03-19T00:25:33.477Z,8.78
2017-03-19T00:26:33.805Z,8.84
2017-03-19T00:27:33.201Z,8.87
2017-03-19T00:28:33.928Z,8.81
2017-03-19T00:29:33.936Z,8.74
2017-03-19T00:30:33.944Z,8.73
2017-03-19T00:31:33.952Z,8.87
2017-03-19T00:32:33.896Z,8.85
2017-03-19T00:33:33.999Z,8.76
2017-03-19T00:34:33.993Z,8.81
2017-03-19T00:35:33.702Z,8.76
2017-03-19T00:36:33.711Z,8.78
2017-03-19T00:37:34.004Z,8.84
2017-03-19T00:38:33.984Z,8.78
2017-03-19T00:39:33.992Z,8.79
2017-03-19T00:40:34.006Z,8.85
2017-03-19T00:41:34.018Z,8.85
2017-03-19T00:42:34.031Z,8.84
2017-03-19T00:43:34.053Z,8.85
2017-03-19T00:44:34.064Z,8.87
2017-03-19T00:45:34.109Z,8.82
2017-03-19T00:46:33.839Z,8.78
2017-03-19T00:47:34.107Z,8.81
2017-03-19T00:48:34.122Z,8.78
2017-03-19T00:49:34.131Z,8.81
2017-03-19T00:50:34.168Z,8.76
2017-03-19T00:51:34.160Z,8.84
2017-03-19T00:52:34.177Z,8.81
2017-03-19T00:53:34.190Z,8.74
2017-03-19T00:54:34.204Z,8.78
2017-03-19T00:55:34.218Z,8.74
2017-03-19T00:56:34.233Z,8.76
2017-03-19T00:57:34.249Z,8.82
2017-03-19T00:58:34.275Z,8.81
2017-03-19T00:59:34.279Z,8.82
2017-03-19T01:00:34.295Z,8.84
2017-03-19T01:01:34.306Z,8.84
2017-03-19T01:02:34.321Z,8.82
2017-03-19T01:03:34.336Z,8.79
2017-03-19T01:04:34.341Z,8.82
2017-03-19T01:05:34.359Z,8.73
2017-03-19T01:06:34.377Z,8.82
2017-03-19T01:07:34.396Z,8.7
2017-03-19T01:08:34.403Z,8.79
2017-03-19T01:09:34.419Z,8.64
2017-03-19T01:10:34.438Z,8.69
2017-03-19T01:11:34.455Z,8.66
2017-03-19T01:12:34.480Z,8.69
2017-03-19T01:13:34.483Z,8.73
2017-03-19T01:14:34.492Z,8.76
2017-03-19T01:15:34.183Z,8.76
2017-03-19T01:16:34.201Z,8.69
2017-03-19T01:17:34.218Z,8.67
2017-03-19T01:18:34.543Z,8.69
2017-03-19T01:19:34.554Z,8.67
2017-03-19T01:20:34.577Z,8.7
2017-03-19T01:21:34.587Z,8.67
2017-03-19T01:22:34.602Z,8.63
2017-03-19T01:23:34.620Z,8.63
2017-03-19T01:24:34.632Z,8.64
2017-03-19T01:25:34.645Z,8.6
2017-03-19T01:26:34.343Z,8.66
2017-03-19T01:27:34.670Z,8.64
2017-03-19T01:28:34.690Z,8.53
2017-03-19T01:29:34.701Z,8.52
2017-03-19T01:30:34.712Z,8.58
2017-03-19T01:31:34.730Z,8.48
2017-03-19T01:32:34.773Z,8.48
2017-03-19T01:33:34.773Z,8.53
2017-03-19T01:34:34.769Z,8.6
2017-03-19T01:35:34.790Z,8.53
2017-03-19T01:36:34.798Z,8.6
2017-03-19T01:37:34.500Z,8.56
2017-03-19T01:38:34.828Z,8.46
2017-03-19T01:39:34.533Z,8.48
2017-03-19T01:40:34.889Z,8.51
2017-03-19T01:41:34.871Z,8.51
2017-03-19T01:42:34.886Z,8.48
2017-03-19T01:43:34.592Z,8.52
2017-03-19T01:44:34.919Z,8.52
2017-03-19T01:45:34.927Z,8.52
2017-03-19T01:46:34.949Z,8.46
2017-03-19T01:47:34.958Z,8.46
2017-03-19T01:48:34.971Z,8.48
2017-03-19T01:49:34.987Z,8.51
2017-03-19T01:50:35.008Z,8.55
2017-03-19T01:51:35.037Z,8.51
2017-03-19T01:52:35.022Z,8.51
2017-03-19T01:53:35.039Z,8.48
2017-03-19T01:54:35.053Z,8.48
2017-03-19T01:55:35.070Z,8.55
2017-03-19T01:56:35.083Z,8.49
2017-03-19T01:57:35.096Z,8.51
2017-03-19T01:58:35.112Z,8.49
2017-03-19T01:59:35.130Z,8.41
2017-03-19T02:00:35.179Z,8.46
2017-03-19T02:01:35.158Z,8.51
2017-03-19T02:02:35.166Z,8.45
2017-03-19T02:03:34.866Z,8.45
2017-03-19T02:04:35.193Z,8.51
2017-03-19T02:05:35.207Z,8.51
2017-03-19T02:06:35.219Z,8.52
2017-03-19T02:07:35.252Z,8.46
2017-03-19T02:08:35.249Z,8.53
2017-03-19T02:09:35.262Z,8.49
2017-03-19T02:10:35.273Z,8.48
2017-03-19T02:11:35.295Z,8.46
2017-03-19T02:12:35.306Z,8.48
2017-03-19T02:13:35.333Z,8.49
2017-03-19T02:14:35.330Z,8.45
2017-03-19T02:15:35.350Z,8.48
2017-03-19T02:16:35.373Z,8.53
2017-03-19T02:17:35.373Z,8.49
2017-03-19T02:18:35.396Z,8.45
2017-03-19T02:19:35.408Z,8.41
2017-03-19T02:20:35.411Z,8.48
2017-03-19T02:21:35.434Z,8.51
2017-03-19T02:22:35.563Z,8.46
2017-03-19T02:23:35.561Z,8.51
2017-03-19T02:24:35.569Z,8.51
2017-03-19T02:25:35.579Z,8.51
2017-03-19T02:26:35.613Z,8.52
2017-03-19T02:27:35.622Z,8.51
2017-03-19T02:28:35.619Z,8.53
2017-03-19T02:29:35.629Z,8.49
2017-03-19T02:30:35.637Z,8.51
2017-03-19T02:31:35.647Z,8.52
2017-03-19T02:32:35.655Z,8.49
2017-03-19T02:33:35.656Z,8.49
2017-03-19T02:34:35.662Z,8.46
2017-03-19T02:35:35.730Z,8.46
2017-03-19T02:36:35.740Z,8.51
2017-03-19T02:37:35.748Z,8.49
2017-03-19T02:38:35.749Z,8.55
2017-03-19T02:39:35.376Z,8.53
2017-03-19T02:40:35.429Z,8.51
2017-03-19T02:41:35.774Z,8.52
2017-03-19T02:42:35.727Z,8.49
2017-03-19T02:43:35.862Z,8.49
2017-03-19T02:44:35.869Z,8.46
2017-03-19T02:45:35.884Z,8.49
2017-03-19T02:46:35.878Z,8.45
2017-03-19T02:47:35.888Z,8.51
2017-03-19T02:48:36.010Z,8.52
2017-03-19T02:49:36.018Z,8.49
2017-03-19T02:50:35.572Z,8.51
2017-03-19T02:51:36.034Z,8.46
2017-03-19T02:52:36.035Z,8.44
2017-03-19T02:53:36.043Z,8.46
2017-03-19T02:54:36.053Z,8.44
2017-03-19T02:55:36.064Z,8.42
2017-03-19T02:56:36.069Z,8.48
2017-03-19T02:57:36.088Z,8.42
2017-03-19T02:58:36.081Z,8.46
2017-03-19T02:59:35.798Z,8.49
2017-03-19T03:00:36.135Z,8.41
2017-03-19T03:01:36.142Z,8.42
2017-03-19T03:02:36.143Z,8.48
2017-03-19T03:03:36.151Z,8.45
2017-03-19T03:04:36.162Z,8.44
2017-03-19T03:05:36.208Z,8.44
2017-03-19T03:06:35.843Z,8.45
2017-03-19T03:07:36.215Z,8.51
2017-03-19T03:08:36.167Z,8.52
2017-03-19T03:09:35.860Z,8.49
2017-03-19T03:10:36.198Z,8.42
2017-03-19T03:11:35.889Z,8.42
2017-03-19T03:12:36.212Z,8.44
2017-03-19T03:13:36.018Z,8.41
2017-03-19T03:14:36.231Z,8.45
2017-03-19T03:15:35.924Z,8.42
2017-03-19T03:16:36.234Z,8.49
2017-03-19T03:17:36.248Z,8.45
2017-03-19T03:18:36.265Z,8.42
2017-03-19T03:19:36.262Z,8.51
2017-03-19T03:20:36.270Z,8.44
2017-03-19T03:21:36.268Z,8.42
2017-03-19T03:22:36.291Z,8.42
2017-03-19T03:23:36.295Z,8.44
2017-03-19T03:24:36.306Z,8.44
2017-03-19T03:25:36.323Z,8.42
2017-03-19T03:26:36.374Z,8.46
2017-03-19T03:27:36.355Z,8.46
2017-03-19T03:28:36.369Z,8.46
2017-03-19T03:29:36.377Z,8.42
2017-03-19T03:30:36.399Z,8.46
2017-03-19T03:31:36.408Z,8.49
2017-03-19T03:32:36.425Z,8.42
2017-03-19T03:33:36.210Z,8.45
2017-03-19T03:34:36.448Z,8.37
2017-03-19T03:35:36.460Z,8.41
2017-03-19T03:36:36.473Z,8.38
2017-03-19T03:37:36.529Z,8.41
2017-03-19T03:38:36.511Z,8.44
2017-03-19T03:39:36.518Z,8.45
2017-03-19T03:40:36.532Z,8.44
2017-03-19T03:41:36.229Z,8.42
2017-03-19T03:42:36.564Z,8.45
2017-03-19T03:43:36.578Z,8.45
2017-03-19T03:44:36.588Z,8.46
2017-03-19T03:45:36.634Z,8.46
2017-03-19T03:46:36.619Z,8.44
2017-03-19T03:47:36.633Z,8.52
2017-03-19T03:48:36.643Z,8.45
2017-03-19T03:49:36.652Z,8.49
2017-03-19T03:50:36.675Z,8.52
2017-03-19T03:51:36.679Z,8.48
2017-03-19T03:52:36.703Z,8.46
2017-03-19T03:53:36.711Z,8.38
2017-03-19T03:54:36.728Z,8.44
2017-03-19T03:55:36.420Z,8.44
2017-03-19T03:56:36.438Z,8.46
2017-03-19T03:57:36.778Z,8.48
2017-03-19T03:58:36.779Z,8.38
2017-03-19T03:59:36.794Z,8.45
2017-03-19T04:00:36.819Z,8.42
2017-03-19T04:01:36.826Z,8.45
2017-03-19T04:02:36.835Z,8.46
2017-03-19T04:03:36.854Z,8.52
2017-03-19T04:04:36.863Z,8.45
2017-03-19T04:05:36.882Z,8.44
2017-03-19T04:06:36.580Z,8.37
2017-03-19T04:07:36.908Z,8.45
2017-03-19T04:08:36.922Z,8.46
2017-03-19T04:09:36.935Z,8.42
2017-03-19T04:10:36.945Z,8.44
2017-03-19T04:11:36.959Z,8.46
2017-03-19T04:12:36.977Z,8.45
2017-03-19T04:13:36.998Z,8.44
2017-03-19T04:14:36.999Z,8.53
2017-03-19T04:15:37.021Z,8.41
2017-03-19T04:16:37.031Z,8.42
2017-03-19T04:17:36.730Z,8.42
2017-03-19T04:18:36.746Z,8.42
2017-03-19T04:19:37.075Z,8.42
2017-03-19T04:20:37.082Z,8.44
2017-03-19T04:21:37.106Z,8.46
2017-03-19T04:22:37.114Z,8.34
2017-03-19T04:23:37.132Z,8.48
2017-03-19T04:24:37.138Z,8.36
2017-03-19T04:25:36.846Z,8.37
2017-03-19T04:26:37.181Z,8.41
2017-03-19T04:27:37.181Z,8.45
2017-03-19T04:28:37.251Z,8.28
2017-03-19T04:29:37.212Z,8.3
2017-03-19T04:30:37.227Z,8.36
2017-03-19T04:31:37.380Z,8.34
2017-03-19T04:32:37.252Z,8.37
2017-03-19T04:33:36.950Z,8.33
2017-03-19T04:34:37.281Z,8.33
2017-03-19T04:35:37.294Z,8.37
2017-03-19T04:36:37.310Z,8.38
2017-03-19T04:37:37.330Z,8.38
2017-03-19T04:38:37.343Z,8.33
2017-03-19T04:39:37.565Z,8.38
2017-03-19T04:40:37.363Z,8.37
2017-03-19T04:41:37.375Z,8.36
2017-03-19T04:42:37.521Z,8.36
2017-03-19T04:43:37.437Z,8.38
2017-03-19T04:44:37.420Z,8.38
2017-03-19T04:45:37.433Z,8.37
2017-03-19T04:46:37.444Z,8.38
2017-03-19T04:47:37.583Z,8.34
2017-03-19T04:48:37.472Z,8.34
2017-03-19T04:49:37.279Z,8.33
2017-03-19T04:50:37.588Z,8.31
2017-03-19T04:51:37.510Z,8.33
2017-03-19T04:52:37.547Z,8.3
2017-03-19T04:53:37.585Z,8.31
2017-03-19T04:54:37.554Z,8.31
2017-03-19T04:55:37.573Z,8.36
2017-03-19T04:56:37.594Z,8.37
2017-03-19T04:57:37.611Z,8.3
2017-03-19T04:58:37.624Z,8.33
2017-03-19T04:59:37.628Z,8.37
2017-03-19T05:00:37.632Z,8.3
2017-03-19T05:01:37.340Z,8.31
2017-03-19T05:02:37.357Z,8.33
2017-03-19T05:03:37.718Z,8.37
2017-03-19T05:04:37.382Z,8.36
2017-03-19T05:05:37.885Z,8.38
2017-03-19T05:06:37.721Z,8.24
2017-03-19T05:07:37.737Z,8.31
2017-03-19T05:08:37.859Z,8.26
2017-03-19T05:09:37.888Z,8.33
2017-03-19T05:10:38.037Z,8.24
2017-03-19T05:11:37.993Z,8.27
2017-03-19T05:12:37.994Z,8.33
2017-03-19T05:13:38.011Z,8.28
2017-03-19T05:14:37.932Z,8.38
2017-03-19T05:15:37.849Z,8.33
2017-03-19T05:16:37.859Z,8.33
2017-03-19T05:17:37.874Z,8.33
2017-03-19T05:18:37.578Z,8.36
2017-03-19T05:19:37.899Z,8.19
2017-03-19T05:20:37.916Z,8.18
2017-03-19T05:21:37.927Z,8.31
2017-03-19T05:22:37.946Z,8.33
2017-03-19T05:23:37.966Z,8.34
2017-03-19T05:24:37.975Z,8.19
2017-03-19T05:25:38.157Z,8.31
2017-03-19T05:26:38.145Z,8.33
2017-03-19T05:27:37.893Z,8.37
2017-03-19T05:28:38.148Z,8.31
2017-03-19T05:29:38.040Z,8.28
2017-03-19T05:30:38.063Z,8.37
2017-03-19T05:31:38.069Z,8.33
2017-03-19T05:32:38.088Z,8.38
2017-03-19T05:33:38.109Z,8.27
2017-03-19T05:34:38.106Z,8.28
2017-03-19T05:35:38.131Z,8.31
2017-03-19T05:36:38.011Z,8.36
2017-03-19T05:37:38.157Z,8.31
2017-03-19T05:38:38.161Z,8.28
2017-03-19T05:39:38.183Z,8.33
2017-03-19T05:40:38.198Z,8.36
2017-03-19T05:41:38.219Z,8.3
2017-03-19T05:42:38.223Z,8.37
2017-03-19T05:43:38.239Z,8.36
2017-03-19T05:44:38.249Z,8.41
2017-03-19T05:45:38.266Z,8.31
2017-03-19T05:46:38.437Z,8.36
2017-03-19T05:47:38.290Z,8.37
2017-03-19T05:48:38.302Z,8.3
2017-03-19T05:49:38.314Z,8.37
2017-03-19T05:50:38.328Z,8.31
2017-03-19T05:51:38.344Z,8.36
2017-03-19T05:52:38.362Z,8.33
2017-03-19T05:53:38.375Z,8.45
2017-03-19T05:54:38.387Z,8.45
2017-03-19T05:55:38.401Z,8.42
2017-03-19T05:56:38.417Z,8.45
2017-03-19T05:57:38.427Z,8.48
2017-03-19T05:58:38.447Z,8.42
2017-03-19T05:59:38.448Z,8.48
2017-03-19T06:00:38.473Z,8.44
2017-03-19T06:01:38.486Z,8.44
2017-03-19T06:02:38.503Z,8.42
2017-03-19T06:03:38.503Z,8.48
2017-03-19T06:04:38.527Z,8.44
2017-03-19T06:05:38.535Z,8.53
2017-03-19T06:06:38.628Z,8.46
2017-03-19T06:07:38.577Z,8.52
2017-03-19T06:08:38.583Z,8.48
2017-03-19T06:09:38.595Z,8.55
2017-03-19T06:10:38.604Z,8.48
2017-03-19T06:11:38.623Z,8.53
2017-03-19T06:12:38.633Z,8.52
2017-03-19T06:13:38.640Z,8.48
2017-03-19T06:14:38.345Z,8.49
2017-03-19T06:15:38.697Z,8.49
2017-03-19T06:16:38.808Z,8.49
2017-03-19T06:17:38.699Z,8.6
2017-03-19T06:18:38.845Z,8.52
2017-03-19T06:19:38.813Z,8.52
2017-03-19T06:20:38.859Z,8.53
2017-03-19T06:21:38.558Z,8.52
2017-03-19T06:22:38.460Z,8.53
2017-03-19T06:23:38.831Z,8.53
2017-03-19T06:24:38.490Z,8.6
2017-03-19T06:25:38.814Z,8.64
2017-03-19T06:26:38.828Z,8.64
2017-03-19T06:27:38.849Z,8.58
2017-03-19T06:28:38.998Z,8.58
2017-03-19T06:29:38.997Z,8.61
2017-03-19T06:30:38.565Z,8.66
2017-03-19T06:31:39.014Z,8.66
2017-03-19T06:32:38.913Z,8.69
2017-03-19T06:33:38.936Z,8.74
2017-03-19T06:34:38.945Z,8.71
2017-03-19T06:35:39.077Z,8.71
2017-03-19T06:36:38.961Z,8.67
2017-03-19T06:37:38.974Z,8.76
2017-03-19T06:38:39.009Z,8.78
2017-03-19T06:39:39.040Z,8.74
2017-03-19T06:40:39.140Z,8.78
2017-03-19T06:41:39.092Z,8.81
2017-03-19T06:42:39.182Z,8.81
2017-03-19T06:43:39.162Z,8.82
2017-03-19T06:44:39.127Z,8.97
2017-03-19T06:45:39.118Z,8.91
2017-03-19T06:46:39.107Z,8.85
2017-03-19T06:47:39.128Z,8.85
2017-03-19T06:48:39.130Z,8.97
2017-03-19T06:49:38.840Z,8.99
2017-03-19T06:50:39.163Z,8.99
2017-03-19T06:51:39.179Z,9
2017-03-19T06:52:39.196Z,8.92
2017-03-19T06:53:39.393Z,9.02
2017-03-19T06:54:39.299Z,9.03
2017-03-19T06:55:39.377Z,9.1
2017-03-19T06:56:39.244Z,9.06
2017-03-19T06:57:39.333Z,9.06
2017-03-19T06:58:39.379Z,9.21
2017-03-19T06:59:39.287Z,9.16
2017-03-19T07:00:39.300Z,9.18
2017-03-19T07:01:39.314Z,9.19
2017-03-19T07:02:39.335Z,9.22
2017-03-19T07:03:39.349Z,9.23
2017-03-19T07:04:39.358Z,9.28
2017-03-19T07:05:39.369Z,9.31
2017-03-19T07:06:39.390Z,9.25
2017-03-19T07:07:39.100Z,9.37
2017-03-19T07:08:39.420Z,9.31
2017-03-19T07:09:39.430Z,9.34
2017-03-19T07:10:39.460Z,9.39
2017-03-19T07:11:39.462Z,9.4
2017-03-19T07:12:39.474Z,9.46
2017-03-19T07:13:39.485Z,9.44
2017-03-19T07:14:39.500Z,9.46
2017-03-19T07:15:39.506Z,9.44
2017-03-19T07:16:39.240Z,9.4
2017-03-19T07:17:39.552Z,9.44
2017-03-19T07:18:39.564Z,9.44
2017-03-19T07:19:39.568Z,9.51
2017-03-19T07:20:39.583Z,9.47
2017-03-19T07:21:39.604Z,9.51
2017-03-19T07:22:39.624Z,9.56
2017-03-19T07:23:39.317Z,9.48
2017-03-19T07:24:39.655Z,9.56
2017-03-19T07:25:39.654Z,9.54
2017-03-19T07:26:39.668Z,9.51
2017-03-19T07:27:39.372Z,9.56
2017-03-19T07:28:39.698Z,9.61
2017-03-19T07:29:39.721Z,9.58
2017-03-19T07:30:39.815Z,9.66
2017-03-19T07:31:39.748Z,9.68
2017-03-19T07:32:39.774Z,9.73
2017-03-19T07:33:39.791Z,9.69
2017-03-19T07:34:39.791Z,9.65
2017-03-19T07:35:39.800Z,9.66
2017-03-19T07:36:39.816Z,9.69
2017-03-19T07:37:39.836Z,9.74
2017-03-19T07:38:39.853Z,9.72
2017-03-19T07:39:39.865Z,9.74
2017-03-19T07:40:39.877Z,9.74
2017-03-19T07:41:39.892Z,9.68
2017-03-19T07:42:39.937Z,9.64
2017-03-19T07:43:39.923Z,9.65
2017-03-19T07:44:40.140Z,9.68
2017-03-19T07:45:40.144Z,9.73
2017-03-19T07:46:40.158Z,9.79
2017-03-19T07:47:40.160Z,9.8
2017-03-19T07:48:40.174Z,9.8
2017-03-19T07:49:40.098Z,9.82
2017-03-19T07:50:40.106Z,9.82
2017-03-19T07:51:40.256Z,9.84
2017-03-19T07:52:39.857Z,9.86
2017-03-19T07:53:40.195Z,9.89
2017-03-19T07:54:39.769Z,9.84
2017-03-19T07:55:40.095Z,9.97
2017-03-19T07:56:40.110Z,9.97
2017-03-19T07:57:40.246Z,9.92
2017-03-19T07:58:40.170Z,9.89
2017-03-19T07:59:40.149Z,10.02
2017-03-19T08:00:40.163Z,10.07
2017-03-19T08:01:40.180Z,10.07
2017-03-19T08:02:40.209Z,10.13
2017-03-19T08:03:40.406Z,10.07
2017-03-19T08:04:40.235Z,10.1
2017-03-19T08:05:40.239Z,10.2
2017-03-19T08:06:40.253Z,10.12
2017-03-19T08:07:40.269Z,10.1
2017-03-19T08:08:40.283Z,10.17
2017-03-19T08:09:40.305Z,10.12
2017-03-19T08:10:40.323Z,10.25
2017-03-19T08:11:40.330Z,10.25
2017-03-19T08:12:40.365Z,10.25
2017-03-19T08:13:40.366Z,10.22
2017-03-19T08:14:40.372Z,10.3
2017-03-19T08:15:40.084Z,10.26
2017-03-19T08:16:40.501Z,10.33
2017-03-19T08:17:40.429Z,10.28
2017-03-19T08:18:40.446Z,10.28
2017-03-19T08:19:40.450Z,10.26
2017-03-19T08:20:40.155Z,10.31
2017-03-19T08:21:40.490Z,10.33
2017-03-19T08:22:40.496Z,10.34
2017-03-19T08:23:40.516Z,10.3
2017-03-19T08:24:40.527Z,10.33
2017-03-19T08:25:40.544Z,10.33
2017-03-19T08:26:40.247Z,10.3
2017-03-19T08:27:40.576Z,10.31
2017-03-19T08:28:40.594Z,10.34
2017-03-19T08:29:40.607Z,10.31
2017-03-19T08:30:40.618Z,10.3
2017-03-19T08:31:40.637Z,10.26
2017-03-19T08:32:40.657Z,10.3
2017-03-19T08:33:40.671Z,10.25
2017-03-19T08:34:40.679Z,10.34
2017-03-19T08:35:40.691Z,10.41
2017-03-19T08:36:40.713Z,10.33
2017-03-19T08:37:40.739Z,10.3
2017-03-19T08:38:40.747Z,10.38
2017-03-19T08:39:40.751Z,10.3
2017-03-19T08:40:40.770Z,10.28
2017-03-19T08:41:40.791Z,10.38
2017-03-19T08:42:40.804Z,10.3
2017-03-19T08:43:40.824Z,10.4
2017-03-19T08:44:40.840Z,10.37
2017-03-19T08:45:40.849Z,10.35
2017-03-19T08:46:40.858Z,10.41
2017-03-19T08:47:40.877Z,10.38
2017-03-19T08:48:40.590Z,10.4
2017-03-19T08:49:40.903Z,10.42
2017-03-19T08:50:40.608Z,10.41
2017-03-19T08:51:40.943Z,10.4
2017-03-19T08:52:40.962Z,10.41
2017-03-19T08:53:40.973Z,10.42
2017-03-19T08:54:40.670Z,10.44
2017-03-19T08:55:41.002Z,10.41
2017-03-19T08:56:40.717Z,10.51
2017-03-19T08:57:41.047Z,10.48
2017-03-19T08:58:41.057Z,10.53
2017-03-19T08:59:41.054Z,10.51
2017-03-19T09:00:41.084Z,10.51
2017-03-19T09:01:41.098Z,10.51
2017-03-19T09:02:41.109Z,10.56
2017-03-19T09:03:41.126Z,10.53
2017-03-19T09:04:41.137Z,10.56
2017-03-19T09:05:41.158Z,10.6
2017-03-19T09:06:41.170Z,10.57
2017-03-19T09:07:41.187Z,10.53
2017-03-19T09:08:41.203Z,10.63
2017-03-19T09:09:41.216Z,10.57
2017-03-19T09:10:41.352Z,10.56
2017-03-19T09:11:41.242Z,10.51
2017-03-19T09:12:41.354Z,10.57
2017-03-19T09:13:41.272Z,10.57
2017-03-19T09:14:41.295Z,10.63
2017-03-19T09:15:40.994Z,10.54
2017-03-19T09:16:41.329Z,10.54
2017-03-19T09:17:41.248Z,10.56
2017-03-19T09:18:41.566Z,10.48
2017-03-19T09:19:41.062Z,10.51
2017-03-19T09:20:41.385Z,10.53
2017-03-19T09:21:41.400Z,10.44
2017-03-19T09:22:41.419Z,10.44
2017-03-19T09:23:41.128Z,10.4
2017-03-19T09:24:41.446Z,10.46
2017-03-19T09:25:41.151Z,10.38
2017-03-19T09:26:41.481Z,10.41
2017-03-19T09:27:41.494Z,10.34
2017-03-19T09:28:41.507Z,10.4
2017-03-19T09:29:41.523Z,10.4
2017-03-19T09:30:41.582Z,10.44
2017-03-19T09:31:41.246Z,10.44
2017-03-19T09:32:41.586Z,10.35
2017-03-19T09:33:41.587Z,10.37
2017-03-19T09:34:41.601Z,10.41
2017-03-19T09:35:41.617Z,10.38
2017-03-19T09:36:41.633Z,10.44
2017-03-19T09:37:41.399Z,10.38
2017-03-19T09:38:41.386Z,10.48
2017-03-19T09:39:41.678Z,10.37
2017-03-19T09:40:41.693Z,10.48
2017-03-19T09:41:41.711Z,10.42
2017-03-19T09:42:41.516Z,10.42
2017-03-19T09:43:41.428Z,10.44
2017-03-19T09:44:41.752Z,10.46
2017-03-19T09:45:41.853Z,10.46
2017-03-19T09:46:41.913Z,10.38
2017-03-19T09:47:41.893Z,10.41
2017-03-19T09:48:41.816Z,10.4
2017-03-19T09:49:41.679Z,10.46
2017-03-19T09:50:42.035Z,10.41
2017-03-19T09:51:41.864Z,10.42
2017-03-19T09:52:41.886Z,10.4
2017-03-19T09:53:41.900Z,10.4
2017-03-19T09:54:41.598Z,10.41
2017-03-19T09:55:41.929Z,10.46
2017-03-19T09:56:41.631Z,10.56
2017-03-19T09:57:41.991Z,10.48
2017-03-19T09:58:41.981Z,10.53
2017-03-19T09:59:41.994Z,10.54
2017-03-19T10:00:42.005Z,10.57
2017-03-19T10:01:41.707Z,10.6
2017-03-19T10:02:42.042Z,10.54
2017-03-19T10:03:42.060Z,10.56
2017-03-19T10:04:42.065Z,10.56
2017-03-19T10:05:42.097Z,10.57
2017-03-19T10:06:42.099Z,10.67
2017-03-19T10:07:42.126Z,10.59
2017-03-19T10:08:42.139Z,10.67
2017-03-19T10:09:41.518Z,10.6
2017-03-19T10:10:42.161Z,10.61
2017-03-19T10:11:42.179Z,10.61
2017-03-19T10:12:42.199Z,10.63
2017-03-19T10:13:42.212Z,10.64
2017-03-19T10:14:42.226Z,10.67
2017-03-19T10:15:42.245Z,10.64
2017-03-19T10:16:42.256Z,10.69
2017-03-19T10:17:41.650Z,10.64
2017-03-19T10:18:42.289Z,10.63
2017-03-19T10:19:42.501Z,10.61
2017-03-19T10:20:42.362Z,10.67
2017-03-19T10:21:42.337Z,10.71
2017-03-19T10:22:42.352Z,10.72
2017-03-19T10:23:42.370Z,10.81
2017-03-19T10:24:42.388Z,10.79
2017-03-19T10:25:42.394Z,10.74
2017-03-19T10:26:42.093Z,10.79
2017-03-19T10:27:42.438Z,10.79
2017-03-19T10:28:42.447Z,10.76
2017-03-19T10:29:42.457Z,10.78
2017-03-19T10:30:42.472Z,10.75
2017-03-19T10:31:42.493Z,10.84
2017-03-19T10:32:42.509Z,10.74
2017-03-19T10:33:42.208Z,10.79
2017-03-19T10:34:42.537Z,10.79
2017-03-19T10:35:42.553Z,10.9
2017-03-19T10:36:42.573Z,10.79
2017-03-19T10:37:42.813Z,10.82
2017-03-19T10:38:42.602Z,10.86
2017-03-19T10:39:42.328Z,10.86
2017-03-19T10:40:42.829Z,10.81
2017-03-19T10:41:42.644Z,10.86
2017-03-19T10:42:42.687Z,10.92
2017-03-19T10:43:42.676Z,10.87
2017-03-19T10:44:42.380Z,10.93
2017-03-19T10:45:42.723Z,10.87
2017-03-19T10:46:42.721Z,10.93
2017-03-19T10:47:42.424Z,10.93
2017-03-19T10:48:42.440Z,10.93
2017-03-19T10:49:42.778Z,10.94
2017-03-19T10:50:42.786Z,10.97
2017-03-19T10:51:42.806Z,11
2017-03-19T10:52:42.825Z,10.96
2017-03-19T10:53:42.839Z,10.87
2017-03-19T10:54:42.538Z,10.99
2017-03-19T10:55:42.876Z,10.9
2017-03-19T10:56:42.886Z,10.92
2017-03-19T10:57:42.906Z,10.94
2017-03-19T10:58:42.917Z,10.96
2017-03-19T10:59:42.943Z,10.92
2017-03-19T11:00:42.943Z,10.9
2017-03-19T11:01:42.956Z,10.96
2017-03-19T11:02:42.985Z,10.93
2017-03-19T11:03:43.010Z,10.96
2017-03-19T11:04:42.699Z,10.97
2017-03-19T11:05:43.032Z,10.99
2017-03-19T11:06:43.038Z,10.92
2017-03-19T11:07:43.059Z,10.92
2017-03-19T11:08:43.072Z,10.99
2017-03-19T11:09:43.088Z,10.99
2017-03-19T11:10:43.106Z,10.97
2017-03-19T11:11:43.126Z,11.02
2017-03-19T11:12:43.144Z,11.07
2017-03-19T11:13:43.151Z,11.05
2017-03-19T11:14:43.172Z,11.05
2017-03-19T11:15:43.185Z,11.08
2017-03-19T11:16:43.200Z,11.07
2017-03-19T11:17:43.221Z,11.08
2017-03-19T11:18:43.235Z,11.1
2017-03-19T11:19:43.248Z,11.08
2017-03-19T11:20:43.272Z,11.11
2017-03-19T11:21:43.277Z,11.07
2017-03-19T11:22:43.294Z,11.19
2017-03-19T11:23:43.002Z,11.15
2017-03-19T11:24:43.323Z,11.1
2017-03-19T11:25:43.349Z,11.18
2017-03-19T11:26:43.358Z,11.18
2017-03-19T11:27:43.377Z,11.18
2017-03-19T11:28:43.397Z,11.17
2017-03-19T11:29:43.411Z,11.17
2017-03-19T11:30:43.422Z,11.12
2017-03-19T11:31:43.443Z,11.18
2017-03-19T11:32:43.465Z,11.11
2017-03-19T11:33:43.473Z,11.17
2017-03-19T11:34:43.186Z,11.15
2017-03-19T11:35:43.508Z,11.14
2017-03-19T11:36:43.514Z,11.14
2017-03-19T11:37:43.540Z,11.23
2017-03-19T11:38:43.556Z,11.17
2017-03-19T11:39:43.565Z,11.14
2017-03-19T11:40:43.590Z,11.18
2017-03-19T11:41:43.596Z,11.19
2017-03-19T11:42:43.621Z,11.27
2017-03-19T11:43:43.637Z,11.25
2017-03-19T11:44:43.763Z,11.19
2017-03-19T11:45:43.663Z,11.22
2017-03-19T11:46:43.684Z,11.23
2017-03-19T11:47:43.810Z,11.23
2017-03-19T11:48:43.782Z,11.26
2017-03-19T11:49:43.416Z,11.27
2017-03-19T11:50:43.802Z,11.29
2017-03-19T11:51:43.800Z,11.3
2017-03-19T11:52:43.808Z,11.33
2017-03-19T11:53:43.819Z,11.41
2017-03-19T11:54:43.826Z,11.35
2017-03-19T11:55:43.835Z,11.36
2017-03-19T11:56:43.838Z,11.4
2017-03-19T11:57:43.978Z,11.35
2017-03-19T11:58:43.247Z,11.41
2017-03-19T11:59:43.996Z,11.45
2017-03-19T12:00:44.004Z,11.54
2017-03-19T12:01:43.928Z,11.5
2017-03-19T12:02:43.942Z,11.52
2017-03-19T12:03:44.062Z,11.52
2017-03-19T12:04:44.071Z,11.6
2017-03-19T12:05:44.068Z,11.57
2017-03-19T12:06:44.077Z,11.59
2017-03-19T12:07:44.120Z,11.54
2017-03-19T12:08:44.120Z,11.57
2017-03-19T12:09:44.089Z,11.57
2017-03-19T12:10:43.838Z,11.59
2017-03-19T12:11:43.772Z,11.68
2017-03-19T12:12:44.145Z,11.68
2017-03-19T12:13:44.124Z,11.62
2017-03-19T12:14:44.130Z,11.6
2017-03-19T12:15:44.174Z,11.63
2017-03-19T12:16:44.163Z,11.65
2017-03-19T12:17:44.193Z,11.78
2017-03-19T12:18:44.205Z,11.73
2017-03-19T12:19:44.210Z,11.7
2017-03-19T12:20:43.955Z,11.68
2017-03-19T12:21:44.242Z,11.68
2017-03-19T12:22:44.263Z,11.66
2017-03-19T12:23:44.281Z,11.63
2017-03-19T12:24:44.298Z,11.73
2017-03-19T12:25:44.002Z,11.8
2017-03-19T12:26:44.017Z,11.73
2017-03-19T12:27:44.041Z,11.75
2017-03-19T12:28:44.361Z,11.78
2017-03-19T12:29:44.379Z,11.72
2017-03-19T12:30:44.390Z,11.69
2017-03-19T12:31:44.410Z,11.69
2017-03-19T12:32:44.127Z,11.83
2017-03-19T12:33:44.451Z,11.78
2017-03-19T12:34:44.148Z,11.88
2017-03-19T12:35:44.477Z,11.87
2017-03-19T12:36:44.496Z,11.8
2017-03-19T12:37:44.508Z,11.87
2017-03-19T12:38:44.524Z,11.95
2017-03-19T12:39:44.237Z,11.91
2017-03-19T12:40:44.560Z,11.91
2017-03-19T12:41:44.577Z,11.95
2017-03-19T12:42:44.600Z,11.88
2017-03-19T12:43:44.613Z,11.94
2017-03-19T12:44:44.625Z,12
2017-03-19T12:45:44.326Z,12.03
2017-03-19T12:46:44.662Z,12.03
2017-03-19T12:47:44.358Z,12.12
2017-03-19T12:48:44.722Z,12.09
2017-03-19T12:49:44.711Z,12.06
2017-03-19T12:50:44.765Z,12.04
2017-03-19T12:51:44.741Z,12.17
2017-03-19T12:52:44.758Z,12.17
2017-03-19T12:53:44.775Z,12.13
2017-03-19T12:54:44.792Z,12.27
2017-03-19T12:55:44.495Z,12.32
2017-03-19T12:56:44.833Z,12.21
2017-03-19T12:57:44.845Z,12.24
2017-03-19T12:58:44.857Z,12.25
2017-03-19T12:59:44.872Z,12.32
2017-03-19T13:00:44.895Z,12.24
2017-03-19T13:01:44.909Z,12.28
2017-03-19T13:02:44.973Z,12.42
2017-03-19T13:03:44.950Z,12.36
2017-03-19T13:04:44.962Z,12.42
2017-03-19T13:05:44.975Z,12.4
2017-03-19T13:06:44.989Z,12.39
2017-03-19T13:07:45.008Z,12.31
2017-03-19T13:08:45.024Z,12.32
2017-03-19T13:09:44.733Z,12.35
2017-03-19T13:10:45.058Z,12.35